Time;durP1;ratioP1;P1;durP2;ratioP2;P2;SDS_P1;SDS_P2;PMS_P1;PMS_P2;Temp;Humidity;BMP_temperature;BMP_pressure;BME280_temperature;BME280_humidity;BME280_pressure;Samples;Min_cycle;Max_cycle;Signal;HPM_P1;HPM_P2
2023/06/09 00:00:36;;;;;;;14.68;5.25;;;;;;;;;;4989174;28;20213;-63
2023/06/09 00:03:02;;;;;;;15.68;5.25;;;;;;;;;;4989581;28;20069;-63
2023/06/09 00:05:32;;;;;;;12.52;5.05;;;;;;;;;;4993180;28;20115;-63
2023/06/09 00:07:58;;;;;;;18.25;5.35;;;;;;;;;;4992507;28;20578;-63
2023/06/09 00:10:24;;;;;;;14.88;5.65;;;;;;;;;;4993224;28;20058;-60
2023/06/09 00:12:52;;;;;;;14.13;5.45;;;;;;;;;;4992465;28;20064;-60
2023/06/09 00:15:18;;;;;;;16.35;6.38;;;;;;;;;;4994331;28;20038;-60
2023/06/09 00:17:45;;;;;;;15.73;6.50;;;;;;;;;;4993277;28;20108;-60
2023/06/09 00:20:12;;;;;;;15.20;6.80;;;;;;;;;;4992604;28;20148;-60
2023/06/09 00:22:43;;;;;;;17.27;6.97;;;;;;;;;;4994133;28;20572;-60
2023/06/09 00:25:15;;;;;;;15.20;7.20;;;;;;;;;;4994094;28;20116;-60
2023/06/09 00:27:43;;;;;;;16.43;6.73;;;;;;;;;;4994067;28;20038;-60
2023/06/09 00:30:10;;;;;;;25.42;7.00;;;;;;;;;;4993283;28;20880;-60
2023/06/09 00:32:36;;;;;;;17.63;6.63;;;;;;;;;;4994047;28;20076;-60
2023/06/09 00:35:02;;;;;;;13.65;6.25;;;;;;;;;;4993386;28;20034;-60
2023/06/09 00:37:29;;;;;;;19.42;7.47;;;;;;;;;;4992562;28;20037;-60
2023/06/09 00:39:55;;;;;;;17.30;5.97;;;;;;;;;;4993405;28;20041;-60
2023/06/09 00:42:21;;;;;;;14.07;6.13;;;;;;;;;;4993865;28;20038;-60
2023/06/09 00:44:47;;;;;;;18.13;6.43;;;;;;;;;;4993083;28;20028;-60
2023/06/09 00:47:14;;;;;;;14.43;5.63;;;;;;;;;;4993272;28;20058;-60
2023/06/09 00:49:40;;;;;;;15.90;5.85;;;;;;;;;;4992827;28;21831;-60
2023/06/09 00:52:06;;;;;;;15.32;6.28;;;;;;;;;;4993155;28;20069;-60
2023/06/09 00:54:32;;;;;;;19.20;6.72;;;;;;;;;;4992600;28;20029;-60
2023/06/09 00:56:59;;;;;;;18.40;6.13;;;;;;;;;;4992417;28;20042;-60
2023/06/09 00:59:25;;;;;;;12.35;5.85;;;;;;;;;;4992835;28;20037;-60
2023/06/09 01:01:52;;;;;;;16.92;6.60;;;;;;;;;;4992273;28;20032;-60
2023/06/09 01:04:18;;;;;;;13.48;5.47;;;;;;;;;;4993744;28;20131;-60
2023/06/09 01:07:07;;;;;;;12.93;5.60;;;;;;;;;;4993922;28;21092;-60
2023/06/09 01:09:36;;;;;;;13.52;4.60;;;;;;;;;;4992486;28;20104;-60
2023/06/09 01:12:26;;;;;;;15.20;5.20;;;;;;;;;;4992972;28;20033;-60
2023/06/09 01:14:58;;;;;;;19.02;5.60;;;;;;;;;;4993369;28;20037;-60
2023/06/09 01:17:28;;;;;;;17.15;5.32;;;;;;;;;;4992163;28;20037;-60
2023/06/09 01:19:57;;;;;;;16.13;5.45;;;;;;;;;;4993218;28;20412;-60
2023/06/09 01:22:37;;;;;;;12.20;4.82;;;;;;;;;;4992871;28;20030;-60
2023/06/09 01:25:04;;;;;;;13.05;5.15;;;;;;;;;;4993457;28;20026;-60
2023/06/09 01:27:31;;;;;;;15.57;5.35;;;;;;;;;;4992753;28;20033;-60
2023/06/09 01:29:58;;;;;;;19.83;5.80;;;;;;;;;;4993655;28;20140;-60
2023/06/09 01:32:25;;;;;;;11.25;5.22;;;;;;;;;;4991678;28;20400;-60
2023/06/09 01:34:52;;;;;;;19.00;5.78;;;;;;;;;;4990261;28;20127;-60
2023/06/09 01:37:19;;;;;;;15.77;6.05;;;;;;;;;;4990711;28;20041;-60
2023/06/09 01:39:46;;;;;;;13.75;5.20;;;;;;;;;;4991532;28;20588;-60
2023/06/09 01:42:12;;;;;;;13.55;5.47;;;;;;;;;;4990618;28;20036;-60
2023/06/09 01:44:38;;;;;;;14.38;5.18;;;;;;;;;;4991645;28;20069;-60
2023/06/09 01:47:05;;;;;;;17.35;5.03;;;;;;;;;;4992822;28;20033;-60
2023/06/09 01:50:01;;;;;;;14.15;5.65;;;;;;;;;;4992993;28;20192;-60
2023/06/09 01:52:27;;;;;;;15.10;5.60;;;;;;;;;;4956549;28;20069;-60
2023/06/09 01:54:55;;;;;;;12.93;5.18;;;;;;;;;;4991947;28;20640;-60
2023/06/09 01:57:27;;;;;;;21.05;5.88;;;;;;;;;;4992481;28;20124;-60
2023/06/09 01:59:55;;;;;;;12.73;6.07;;;;;;;;;;4992737;28;20040;-60
2023/06/09 02:02:21;;;;;;;18.98;6.03;;;;;;;;;;4993654;28;20060;-60
2023/06/09 02:04:49;;;;;;;17.02;5.25;;;;;;;;;;4992920;28;20049;-60
2023/06/09 02:07:16;;;;;;;12.93;5.07;;;;;;;;;;4991390;28;20026;-60
2023/06/09 02:09:42;;;;;;;16.67;5.45;;;;;;;;;;4981635;28;20054;-60
2023/06/09 02:12:08;;;;;;;15.35;5.50;;;;;;;;;;4971715;28;20132;-60
2023/06/09 02:14:34;;;;;;;14.40;5.28;;;;;;;;;;4972753;28;20030;-60
2023/06/09 02:17:02;;;;;;;13.82;5.60;;;;;;;;;;4972779;28;20034;-60
2023/06/09 02:19:30;;;;;;;18.55;6.38;;;;;;;;;;4972185;28;20104;-60
2023/06/09 02:21:57;;;;;;;15.73;5.93;;;;;;;;;;4971456;28;20029;-60
2023/06/09 02:24:27;;;;;;;15.77;6.18;;;;;;;;;;4971602;28;20039;-60
2023/06/09 02:26:54;;;;;;;15.50;5.97;;;;;;;;;;4971599;28;20795;-60
2023/06/09 02:29:20;;;;;;;13.18;5.18;;;;;;;;;;4970577;28;20397;-60
2023/06/09 02:31:46;;;;;;;11.93;4.50;;;;;;;;;;4971852;28;20038;-60
2023/06/09 02:34:13;;;;;;;12.70;5.43;;;;;;;;;;4971746;28;20119;-60
2023/06/09 02:36:42;;;;;;;16.08;6.30;;;;;;;;;;4972259;28;20537;-60
2023/06/09 02:39:08;;;;;;;15.85;5.00;;;;;;;;;;4970603;28;20038;-60
2023/06/09 02:41:34;;;;;;;12.90;5.82;;;;;;;;;;4971414;28;20083;-60
2023/06/09 02:44:00;;;;;;;14.82;5.13;;;;;;;;;;4971290;28;20030;-60
2023/06/09 02:46:26;;;;;;;14.60;5.32;;;;;;;;;;4970990;28;20046;-60
2023/06/09 02:48:52;;;;;;;13.27;5.43;;;;;;;;;;4972096;28;20026;-60
2023/06/09 02:51:18;;;;;;;11.70;5.18;;;;;;;;;;4971487;28;20089;-60
2023/06/09 02:53:45;;;;;;;15.20;6.03;;;;;;;;;;4970918;28;20030;-60
2023/06/09 02:56:11;;;;;;;13.43;6.18;;;;;;;;;;4968793;28;20046;-60
2023/06/09 02:58:37;;;;;;;14.30;5.82;;;;;;;;;;4970303;28;20169;-60
2023/06/09 03:01:03;;;;;;;15.20;5.65;;;;;;;;;;4970302;28;20038;-60
2023/06/09 03:03:29;;;;;;;12.75;5.78;;;;;;;;;;4971609;28;20045;-60
2023/06/09 03:05:58;;;;;;;16.83;5.25;;;;;;;;;;4972292;28;20068;-60
2023/06/09 03:08:25;;;;;;;14.70;5.38;;;;;;;;;;4971304;28;20097;-60
2023/06/09 03:10:52;;;;;;;13.48;5.70;;;;;;;;;;4990033;28;20702;-60
2023/06/09 03:13:19;;;;;;;15.00;5.63;;;;;;;;;;4991253;28;20048;-60
2023/06/09 03:15:45;;;;;;;15.45;5.88;;;;;;;;;;4990025;28;20033;-60
2023/06/09 03:18:13;;;;;;;11.98;5.32;;;;;;;;;;5005101;28;20472;-60
2023/06/09 03:20:39;;;;;;;16.60;6.22;;;;;;;;;;4989949;28;21399;-60
2023/06/09 03:23:06;;;;;;;15.20;5.97;;;;;;;;;;4989754;28;20030;-60
2023/06/09 03:25:33;;;;;;;12.95;6.43;;;;;;;;;;4989986;28;20054;-60
2023/06/09 03:28:00;;;;;;;16.48;6.13;;;;;;;;;;4988632;28;20038;-60
2023/06/09 03:30:26;;;;;;;14.65;6.82;;;;;;;;;;4988601;28;20124;-60
2023/06/09 03:32:52;;;;;;;11.60;5.95;;;;;;;;;;4989774;28;20036;-60
2023/06/09 03:35:18;;;;;;;15.63;6.78;;;;;;;;;;4989941;28;20030;-60
2023/06/09 03:37:44;;;;;;;20.88;6.30;;;;;;;;;;4987655;28;20124;-60
2023/06/09 03:40:11;;;;;;;23.98;6.53;;;;;;;;;;4992984;28;20660;-60
2023/06/09 03:42:37;;;;;;;14.38;5.93;;;;;;;;;;4993943;28;20040;-60
2023/06/09 03:45:03;;;;;;;20.10;6.45;;;;;;;;;;4995559;28;20029;-60
2023/06/09 03:47:29;;;;;;;20.85;6.43;;;;;;;;;;4993488;28;20081;-60
2023/06/09 03:49:55;;;;;;;17.20;6.82;;;;;;;;;;4995828;28;21696;-60
2023/06/09 03:52:22;;;;;;;15.93;6.57;;;;;;;;;;4995270;28;20038;-60
2023/06/09 03:54:48;;;;;;;14.60;6.72;;;;;;;;;;4995373;28;20499;-60
2023/06/09 03:57:14;;;;;;;12.82;6.85;;;;;;;;;;4994918;28;20041;-60
2023/06/09 03:59:40;;;;;;;15.10;6.82;;;;;;;;;;4993649;28;20026;-60
2023/06/09 04:02:06;;;;;;;21.73;7.78;;;;;;;;;;4995271;28;20072;-60
2023/06/09 04:04:32;;;;;;;20.15;7.40;;;;;;;;;;4995011;28;20829;-60
2023/06/09 04:06:59;;;;;;;14.55;6.70;;;;;;;;;;4994805;28;20385;-60
2023/06/09 04:09:25;;;;;;;20.55;7.30;;;;;;;;;;4994105;28;20054;-60
2023/06/09 04:11:51;;;;;;;19.88;6.72;;;;;;;;;;4995983;28;20040;-60
2023/06/09 04:14:17;;;;;;;14.68;7.03;;;;;;;;;;4995167;28;20037;-60
2023/06/09 04:16:43;;;;;;;16.73;7.15;;;;;;;;;;4995414;28;21208;-60
2023/06/09 04:19:10;;;;;;;14.45;6.70;;;;;;;;;;4996903;28;20034;-60
2023/06/09 04:21:36;;;;;;;20.25;7.60;;;;;;;;;;4993925;28;20044;-60
2023/06/09 04:24:02;;;;;;;15.48;7.70;;;;;;;;;;4996874;28;20415;-60
2023/06/09 04:26:29;;;;;;;23.60;8.88;;;;;;;;;;4997287;28;21110;-60
2023/06/09 04:28:55;;;;;;;17.08;7.72;;;;;;;;;;4997286;28;20107;-60
2023/06/09 04:31:29;;;;;;;16.45;8.10;;;;;;;;;;4997020;28;20040;-60
2023/06/09 04:33:55;;;;;;;;;;;;;;;;;;4996268;28;20037;-60
2023/06/09 04:36:21;;;;;;;17.13;6.88;;;;;;;;;;4996241;28;20760;-60
2023/06/09 04:38:48;;;;;;;20.33;7.28;;;;;;;;;;4994832;28;20127;-60
2023/06/09 04:41:14;;;;;;;20.42;6.82;;;;;;;;;;4996703;28;20037;-60
2023/06/09 04:43:41;;;;;;;18.50;6.32;;;;;;;;;;4997734;28;20688;-60
2023/06/09 04:46:07;;;;;;;16.08;6.07;;;;;;;;;;4997307;28;20033;-60
2023/06/09 04:48:34;;;;;;;11.30;5.07;;;;;;;;;;4997044;28;20140;-60
2023/06/09 04:51:03;;;;;;;17.27;6.60;;;;;;;;;;4993025;28;20033;-60
2023/06/09 04:53:29;;;;;;;16.58;5.57;;;;;;;;;;4993946;28;20437;-60
2023/06/09 04:55:56;;;;;;;13.70;5.75;;;;;;;;;;4993234;28;20087;-60
2023/06/09 04:58:23;;;;;;;16.17;5.93;;;;;;;;;;4992343;28;20131;-60
2023/06/09 05:00:50;;;;;;;13.35;5.47;;;;;;;;;;4992644;28;20038;-60
2023/06/09 05:03:17;;;;;;;13.35;5.18;;;;;;;;;;4993709;28;20036;-60
2023/06/09 05:05:43;;;;;;;13.52;4.68;;;;;;;;;;4992699;28;20029;-60
2023/06/09 05:08:10;;;;;;;14.18;5.20;;;;;;;;;;4993049;28;20038;-60
2023/06/09 05:10:36;;;;;;;15.30;5.07;;;;;;;;;;4992565;28;20133;-60
2023/06/09 05:13:02;;;;;;;12.05;5.13;;;;;;;;;;4992642;28;20040;-60
2023/06/09 05:15:28;;;;;;;15.68;5.63;;;;;;;;;;4993108;28;21047;-60
2023/06/09 05:17:55;;;;;;;13.40;5.47;;;;;;;;;;4992876;28;20768;-60
2023/06/09 05:20:21;;;;;;;13.07;6.00;;;;;;;;;;4991789;28;20564;-59
2023/06/09 05:22:47;;;;;;;18.77;6.07;;;;;;;;;;4992040;28;20033;-60
2023/06/09 05:25:14;;;;;;;15.32;5.25;;;;;;;;;;4993092;28;20759;-59
2023/06/09 05:27:40;;;;;;;15.15;5.70;;;;;;;;;;4992952;28;20366;-59
2023/06/09 05:30:06;;;;;;;12.15;5.28;;;;;;;;;;4993697;28;20029;-60
2023/06/09 05:32:33;;;;;;;15.93;4.97;;;;;;;;;;4992146;28;20129;-60
2023/06/09 05:35:00;;;;;;;16.27;5.72;;;;;;;;;;4991938;28;20034;-60
2023/06/09 05:37:27;;;;;;;22.02;5.45;;;;;;;;;;4993159;28;20049;-60
2023/06/09 05:39:53;;;;;;;13.13;5.68;;;;;;;;;;4993449;28;20726;-60
2023/06/09 05:42:19;;;;;;;17.83;5.93;;;;;;;;;;4991941;28;20045;-60
2023/06/09 05:44:45;;;;;;;14.65;6.05;;;;;;;;;;4990104;28;20036;-60
2023/06/09 05:47:11;;;;;;;15.10;6.00;;;;;;;;;;4989427;28;21047;-60
2023/06/09 05:49:37;;;;;;;13.60;5.40;;;;;;;;;;4990968;28;20037;-59
2023/06/09 05:52:03;;;;;;;15.85;5.82;;;;;;;;;;4991004;28;20045;-60
2023/06/09 05:54:30;;;;;;;13.07;5.57;;;;;;;;;;4991684;28;20434;-60
2023/06/09 05:56:56;;;;;;;17.80;5.25;;;;;;;;;;4991139;28;20128;-60
2023/06/09 05:59:23;;;;;;;14.93;5.22;;;;;;;;;;4992048;28;20072;-59
2023/06/09 06:01:49;;;;;;;18.02;6.28;;;;;;;;;;4991869;28;20424;-60
2023/06/09 06:04:15;;;;;;;16.48;6.55;;;;;;;;;;4992828;28;20049;-60
2023/06/09 06:06:41;;;;;;;14.23;5.30;;;;;;;;;;4992471;28;20564;-59
2023/06/09 06:09:08;;;;;;;14.10;5.55;;;;;;;;;;4992898;28;20049;-59
2023/06/09 06:11:34;;;;;;;14.15;6.60;;;;;;;;;;4993174;28;20489;-59
2023/06/09 06:14:00;;;;;;;14.80;5.47;;;;;;;;;;4986370;28;20103;-60
2023/06/09 06:16:26;;;;;;;14.52;5.60;;;;;;;;;;4983606;28;20038;-60
2023/06/09 06:18:52;;;;;;;16.77;6.00;;;;;;;;;;4983431;28;20033;-60
2023/06/09 06:21:18;;;;;;;14.50;5.43;;;;;;;;;;4983120;28;20029;-60
2023/06/09 06:23:44;;;;;;;17.70;4.85;;;;;;;;;;4985938;28;20098;-60
2023/06/09 06:26:11;;;;;;;15.90;6.18;;;;;;;;;;4984715;28;20036;-60
2023/06/09 06:28:37;;;;;;;16.52;6.28;;;;;;;;;;4984964;28;21409;-60
2023/06/09 06:31:03;;;;;;;14.00;5.47;;;;;;;;;;4985177;28;20045;-60
2023/06/09 06:33:30;;;;;;;13.35;5.45;;;;;;;;;;4984779;28;20110;-60
2023/06/09 06:35:57;;;;;;;17.40;5.00;;;;;;;;;;4984357;28;20034;-60
2023/06/09 06:38:23;;;;;;;13.05;5.43;;;;;;;;;;4984301;28;20563;-60
2023/06/09 06:40:50;;;;;;;15.15;5.70;;;;;;;;;;4984766;28;20048;-60
2023/06/09 06:43:16;;;;;;;16.60;5.28;;;;;;;;;;4984495;28;21102;-60
2023/06/09 06:45:42;;;;;;;16.98;5.63;;;;;;;;;;4984025;28;20503;-60
2023/06/09 06:48:08;;;;;;;16.23;5.20;;;;;;;;;;4984308;28;20030;-59
2023/06/09 06:50:34;;;;;;;12.57;5.70;;;;;;;;;;4983476;28;20049;-60
2023/06/09 06:53:00;;;;;;;12.77;5.30;;;;;;;;;;4983464;28;20122;-60
2023/06/09 06:55:27;;;;;;;15.35;5.80;;;;;;;;;;4988152;28;20041;-60
2023/06/09 06:57:53;;;;;;;16.02;5.78;;;;;;;;;;4983853;28;20041;-60
2023/06/09 07:00:19;;;;;;;17.48;5.88;;;;;;;;;;4983191;28;20038;-60
2023/06/09 07:02:46;;;;;;;17.10;5.07;;;;;;;;;;4984174;28;20087;-59
2023/06/09 07:05:12;;;;;;;13.90;4.82;;;;;;;;;;4983257;28;20117;-60
2023/06/09 07:07:38;;;;;;;17.38;5.47;;;;;;;;;;4983180;28;20034;-60
2023/06/09 07:10:07;;;;;;;14.57;5.60;;;;;;;;;;4984174;28;20108;-60
2023/06/09 07:12:33;;;;;;;22.52;5.75;;;;;;;;;;4983484;28;20038;-60
2023/06/09 07:14:59;;;;;;;15.80;5.80;;;;;;;;;;4983613;28;20029;-60
2023/06/09 07:17:25;;;;;;;17.88;5.45;;;;;;;;;;4983398;28;20092;-64
2023/06/09 07:19:51;;;;;;;13.32;5.78;;;;;;;;;;4980424;28;20064;-65
2023/06/09 07:22:18;;;;;;;16.65;5.55;;;;;;;;;;4984335;28;22175;-65
2023/06/09 07:24:44;;;;;;;12.88;4.78;;;;;;;;;;4982743;28;20092;-64
2023/06/09 07:27:11;;;;;;;17.90;5.63;;;;;;;;;;4984363;28;20088;-64
2023/06/09 07:29:37;;;;;;;12.20;5.10;;;;;;;;;;4984008;28;20040;-65
2023/06/09 07:32:03;;;;;;;15.50;5.95;;;;;;;;;;4983022;28;20037;-64
2023/06/09 07:34:31;;;;;;;15.15;5.45;;;;;;;;;;4983745;28;20483;-65
2023/06/09 07:36:59;;;;;;;14.90;6.20;;;;;;;;;;4983571;28;20052;-64
2023/06/09 07:39:25;;;;;;;16.75;5.05;;;;;;;;;;4984403;28;20042;-64
2023/06/09 07:41:51;;;;;;;19.95;5.75;;;;;;;;;;4983569;28;20025;-64
2023/06/09 07:44:18;;;;;;;16.85;5.28;;;;;;;;;;4982590;28;20045;-64
2023/06/09 07:46:44;;;;;;;20.40;6.53;;;;;;;;;;4982214;28;20112;-64
2023/06/09 07:49:10;;;;;;;17.50;5.93;;;;;;;;;;4980738;28;20030;-63
2023/06/09 07:51:36;;;;;;;20.70;6.15;;;;;;;;;;4980005;28;20085;-64
2023/06/09 07:54:03;;;;;;;19.33;5.68;;;;;;;;;;4980331;28;20038;-64
2023/06/09 07:56:30;;;;;;;13.90;5.35;;;;;;;;;;4982435;28;20022;-64
2023/06/09 07:58:57;;;;;;;12.13;5.30;;;;;;;;;;4981183;28;20057;-64
2023/06/09 08:01:23;;;;;;;13.98;6.05;;;;;;;;;;4980479;28;20160;-64
2023/06/09 08:03:50;;;;;;;17.13;5.95;;;;;;;;;;4983201;28;20287;-64
2023/06/09 08:06:16;;;;;;;19.90;6.28;;;;;;;;;;4983982;28;20145;-64
2023/06/09 08:08:43;;;;;;;13.13;5.07;;;;;;;;;;4980899;28;20744;-64
2023/06/09 08:11:10;;;;;;;15.75;5.30;;;;;;;;;;4982495;28;20104;-64
2023/06/09 08:13:36;;;;;;;17.58;5.85;;;;;;;;;;4980731;28;20061;-64
2023/06/09 08:16:02;;;;;;;14.90;4.95;;;;;;;;;;4981443;28;20051;-64
2023/06/09 08:18:28;;;;;;;13.23;5.00;;;;;;;;;;4982364;28;20042;-65
2023/06/09 08:20:54;;;;;;;14.52;5.10;;;;;;;;;;4982432;28;20026;-65
2023/06/09 08:23:23;;;;;;;11.20;5.43;;;;;;;;;;4983509;28;20033;-64
2023/06/09 08:25:49;;;;;;;15.55;5.13;;;;;;;;;;4984200;28;20030;-64
2023/06/09 08:28:15;;;;;;;12.68;5.05;;;;;;;;;;4987000;28;21350;-64
2023/06/09 08:30:42;;;;;;;13.45;4.97;;;;;;;;;;4985794;28;20030;-64
2023/06/09 08:33:08;;;;;;;13.77;5.13;;;;;;;;;;4985773;28;20971;-64
2023/06/09 08:35:34;;;;;;;14.38;5.60;;;;;;;;;;4986993;28;20033;-64
2023/06/09 08:38:00;;;;;;;11.25;4.85;;;;;;;;;;4989620;28;20038;-64
2023/06/09 08:40:27;;;;;;;16.52;4.65;;;;;;;;;;4992303;28;20033;-64
2023/06/09 08:42:56;;;;;;;13.15;4.97;;;;;;;;;;4992881;28;20022;-64
2023/06/09 08:45:23;;;;;;;13.52;4.13;;;;;;;;;;4991329;28;20121;-64
2023/06/09 08:47:50;;;;;;;13.55;5.32;;;;;;;;;;4988489;28;20048;-65
2023/06/09 08:50:18;;;;;;;16.92;5.93;;;;;;;;;;4990084;28;20037;-64
2023/06/09 08:52:45;;;;;;;13.82;5.28;;;;;;;;;;4992823;28;20109;-65
2023/06/09 08:55:13;;;;;;;15.00;6.20;;;;;;;;;;4992508;28;21038;-65
2023/06/09 08:57:40;;;;;;;11.90;5.07;;;;;;;;;;4992305;28;20504;-65
2023/06/09 09:00:09;;;;;;;13.38;5.20;;;;;;;;;;4992370;28;21833;-64
2023/06/09 09:02:35;;;;;;;9.20;4.53;;;;;;;;;;4992859;28;20037;-65
2023/06/09 09:05:01;;;;;;;12.05;4.97;;;;;;;;;;4992278;28;20088;-64
2023/06/09 09:07:28;;;;;;;16.60;5.78;;;;;;;;;;4990072;28;20107;-64
2023/06/09 09:09:54;;;;;;;12.18;4.50;;;;;;;;;;4992785;28;20139;-65
2023/06/09 09:12:21;;;;;;;11.98;4.68;;;;;;;;;;4992475;28;20037;-65
2023/06/09 09:14:47;;;;;;;18.45;5.80;;;;;;;;;;4992466;28;20041;-64
2023/06/09 09:17:14;;;;;;;10.55;4.60;;;;;;;;;;4991914;28;20113;-64
2023/06/09 09:19:51;;;;;;;12.00;5.43;;;;;;;;;;4991864;28;20029;-65
2023/06/09 09:22:17;;;;;;;12.27;5.78;;;;;;;;;;4992751;28;20378;-65
2023/06/09 09:24:49;;;;;;;16.08;5.35;;;;;;;;;;4993342;28;20121;-64
2023/06/09 09:27:19;;;;;;;13.82;5.00;;;;;;;;;;4993441;28;20053;-65
2023/06/09 09:29:46;;;;;;;13.48;5.90;;;;;;;;;;4993666;28;20188;-65
2023/06/09 09:32:12;;;;;;;13.98;5.53;;;;;;;;;;4993624;28;20037;-65
2023/06/09 09:34:46;;;;;;;10.30;4.82;;;;;;;;;;4992912;28;20058;-64
2023/06/09 09:37:16;;;;;;;9.95;3.92;;;;;;;;;;4992282;28;20037;-64
2023/06/09 09:39:49;;;;;;;13.75;5.43;;;;;;;;;;4993360;28;20061;-65
2023/06/09 09:42:15;;;;;;;10.10;4.78;;;;;;;;;;4992607;28;20053;-65
2023/06/09 09:44:42;;;;;;;10.95;4.47;;;;;;;;;;4993238;28;20497;-66
2023/06/09 09:47:15;;;;;;;13.07;5.72;;;;;;;;;;4993143;28;20037;-64
2023/06/09 09:49:58;;;;;;;10.43;4.80;;;;;;;;;;4992792;28;20060;-64
2023/06/09 09:52:34;;;;;;;11.00;4.43;;;;;;;;;;4992753;28;21283;-65
2023/06/09 09:55:04;;;;;;;12.18;4.90;;;;;;;;;;4992388;28;20513;-63
2023/06/09 09:57:31;;;;;;;13.82;5.20;;;;;;;;;;4991307;28;20100;-62
2023/06/09 10:00:00;;;;;;;11.00;3.90;;;;;;;;;;4989508;28;20057;-63
2023/06/09 10:02:29;;;;;;;9.77;4.18;;;;;;;;;;4990534;28;20167;-63
2023/06/09 10:04:57;;;;;;;13.48;5.07;;;;;;;;;;4991963;28;20038;-63
2023/06/09 10:07:26;;;;;;;10.57;5.18;;;;;;;;;;4992709;28;21535;-63
2023/06/09 10:09:52;;;;;;;9.18;4.38;;;;;;;;;;4983946;28;20049;-64
2023/06/09 10:12:19;;;;;;;11.32;4.25;;;;;;;;;;4989748;28;20044;-64
2023/06/09 10:14:47;;;;;;;8.68;4.75;;;;;;;;;;4988637;28;20053;-64
2023/06/09 10:17:13;;;;;;;15.30;5.20;;;;;;;;;;4987447;28;20068;-64
2023/06/09 10:19:41;;;;;;;8.43;4.28;;;;;;;;;;4980535;28;20041;-64
2023/06/09 10:22:07;;;;;;;17.15;5.30;;;;;;;;;;4987605;28;20033;-64
2023/06/09 10:24:34;;;;;;;12.88;5.10;;;;;;;;;;4987088;28;20037;-65
2023/06/09 10:27:00;;;;;;;11.43;4.88;;;;;;;;;;4988510;28;20037;-64
2023/06/09 10:29:28;;;;;;;10.40;4.95;;;;;;;;;;4990456;28;20033;-65
2023/06/09 10:31:55;;;;;;;13.07;5.57;;;;;;;;;;4989444;28;20030;-65
2023/06/09 10:34:22;;;;;;;9.63;4.50;;;;;;;;;;4989352;28;20044;-65
2023/06/09 10:36:53;;;;;;;11.68;4.28;;;;;;;;;;4989850;28;20041;-65
2023/06/09 10:39:26;;;;;;;10.05;4.05;;;;;;;;;;4989667;28;20033;-65
2023/06/09 10:41:52;;;;;;;;;;;;;;;;;;4988751;28;20798;-64
2023/06/09 10:44:38;;;;;;;8.85;4.32;;;;;;;;;;4987791;28;20008;-64
2023/06/09 10:47:04;;;;;;;11.10;4.55;;;;;;;;;;4986431;28;20057;-64
2023/06/09 10:49:36;;;;;;;10.63;5.25;;;;;;;;;;4984165;28;20037;-64
2023/06/09 10:52:03;;;;;;;12.77;5.17;;;;;;;;;;4986743;28;20034;-64
2023/06/09 10:54:35;;;;;;;11.52;4.72;;;;;;;;;;4987991;28;20037;-64
2023/06/09 10:57:03;;;;;;;11.63;4.80;;;;;;;;;;4988060;28;20504;-64
2023/06/09 10:59:32;;;;;;;9.70;5.15;;;;;;;;;;4987243;28;20057;-64
2023/06/09 11:01:58;;;;;;;13.15;4.63;;;;;;;;;;4986891;28;20492;-64
2023/06/09 11:04:45;;;;;;;12.02;5.20;;;;;;;;;;4988963;28;20489;-64
2023/06/09 11:07:15;;;;;;;11.35;5.05;;;;;;;;;;4987386;28;20029;-64
2023/06/09 11:10:01;;;;;;;11.70;5.70;;;;;;;;;;4987724;28;20972;-64
2023/06/09 11:12:30;;;;;;;11.95;5.32;;;;;;;;;;4988296;28;20060;-64
2023/06/09 11:14:58;;;;;;;12.77;4.90;;;;;;;;;;4988910;28;20048;-64
2023/06/09 11:17:44;;;;;;;11.63;4.72;;;;;;;;;;4989781;28;20117;-64
2023/06/09 11:20:11;;;;;;;8.48;4.43;;;;;;;;;;4989071;28;20034;-64
2023/06/09 11:22:50;;;;;;;11.93;4.80;;;;;;;;;;4990233;28;20646;-64
2023/06/09 11:25:16;;;;;;;12.45;5.18;;;;;;;;;;4987511;28;21609;-64
2023/06/09 11:27:43;;;;;;;12.90;5.57;;;;;;;;;;4989778;28;20079;-64
2023/06/09 11:30:20;;;;;;;10.32;4.82;;;;;;;;;;4990445;28;20057;-64
2023/06/09 11:32:47;;;;;;;9.00;5.03;;;;;;;;;;4986957;28;20651;-64
2023/06/09 11:35:25;;;;;;;12.95;5.43;;;;;;;;;;4990012;28;20033;-64
2023/06/09 11:37:52;;;;;;;10.88;4.65;;;;;;;;;;4990800;28;20038;-64
2023/06/09 11:40:18;;;;;;;8.63;4.43;;;;;;;;;;4990491;28;20021;-64
2023/06/09 11:42:45;;;;;;;11.85;4.55;;;;;;;;;;4986845;28;20041;-64
2023/06/09 11:45:11;;;;;;;11.43;4.68;;;;;;;;;;4990818;28;20465;-64
2023/06/09 11:47:40;;;;;;;11.55;4.65;;;;;;;;;;4990782;28;20018;-64
2023/06/09 11:50:10;;;;;;;8.38;3.65;;;;;;;;;;4990919;28;20041;-64
2023/06/09 11:52:36;;;;;;;26.67;5.28;;;;;;;;;;4990437;28;20034;-65
2023/06/09 11:55:05;;;;;;;9.85;3.97;;;;;;;;;;4990501;28;20077;-65
2023/06/09 11:57:35;;;;;;;11.52;4.25;;;;;;;;;;4990205;28;20487;-64
2023/06/09 12:00:17;;;;;;;8.55;4.00;;;;;;;;;;4990193;28;22023;-65
2023/06/09 12:02:45;;;;;;;10.00;4.17;;;;;;;;;;4993398;28;20034;-65
2023/06/09 12:05:12;;;;;;;11.77;5.03;;;;;;;;;;4993541;28;20026;-64
2023/06/09 12:07:38;;;;;;;12.00;4.55;;;;;;;;;;4989125;28;20037;-64
2023/06/09 12:10:04;;;;;;;7.57;3.88;;;;;;;;;;4991639;28;20103;-64
2023/06/09 12:12:30;;;;;;;10.50;4.15;;;;;;;;;;4993535;28;20038;-64
2023/06/09 12:14:56;;;;;;;9.45;4.00;;;;;;;;;;4994030;28;20549;-64
2023/06/09 12:17:23;;;;;;;10.10;4.50;;;;;;;;;;4993091;28;20029;-64
2023/06/09 12:19:51;;;;;;;9.57;4.65;;;;;;;;;;4993363;28;20868;-64
2023/06/09 12:22:17;;;;;;;7.90;4.25;;;;;;;;;;4993963;28;21201;-64
2023/06/09 12:24:44;;;;;;;9.02;4.22;;;;;;;;;;4994525;28;20041;-64
2023/06/09 12:27:11;;;;;;;10.10;3.95;;;;;;;;;;4994515;28;20041;-64
2023/06/09 12:29:38;;;;;;;7.55;4.32;;;;;;;;;;4994375;28;20044;-64
2023/06/09 12:32:04;;;;;;;10.80;3.92;;;;;;;;;;4994485;28;20083;-64
2023/06/09 12:34:31;;;;;;;12.82;4.68;;;;;;;;;;4994639;28;20030;-64
2023/06/09 12:36:58;;;;;;;10.25;4.75;;;;;;;;;;4993350;28;20068;-64
2023/06/09 12:39:25;;;;;;;7.47;4.30;;;;;;;;;;4994054;28;20036;-64
2023/06/09 12:41:51;;;;;;;8.30;4.13;;;;;;;;;;4994302;28;20189;-64
2023/06/09 12:44:24;;;;;;;11.30;4.53;;;;;;;;;;4994498;28;20010;-64
2023/06/09 12:46:57;;;;;;;11.60;4.03;;;;;;;;;;4993730;28;20037;-64
2023/06/09 12:49:32;;;;;;;8.18;4.35;;;;;;;;;;4993927;28;20040;-65
2023/06/09 12:51:59;;;;;;;8.45;4.50;;;;;;;;;;4994278;28;20519;-64
2023/06/09 12:54:29;;;;;;;8.15;4.07;;;;;;;;;;4994077;28;21273;-64
2023/06/09 12:56:56;;;;;;;9.20;4.00;;;;;;;;;;4993658;28;20100;-64
2023/06/09 12:59:23;;;;;;;11.50;4.05;;;;;;;;;;4992913;28;20038;-64
2023/06/09 13:01:49;;;;;;;10.85;4.63;;;;;;;;;;4992330;28;20040;-64
2023/06/09 13:04:16;;;;;;;8.93;4.10;;;;;;;;;;4993489;28;20422;-64
2023/06/09 13:06:42;;;;;;;8.95;4.10;;;;;;;;;;4993666;28;20034;-64
2023/06/09 13:09:08;;;;;;;11.00;4.57;;;;;;;;;;4993170;28;20037;-64
2023/06/09 13:11:34;;;;;;;6.93;4.35;;;;;;;;;;4992892;28;20493;-64
2023/06/09 13:14:00;;;;;;;14.00;4.82;;;;;;;;;;4992035;28;20116;-64
2023/06/09 13:16:26;;;;;;;13.02;4.13;;;;;;;;;;4986262;28;20044;-64
2023/06/09 13:18:52;;;;;;;10.77;3.88;;;;;;;;;;4988705;28;20041;-64
2023/06/09 13:21:18;;;;;;;9.52;3.78;;;;;;;;;;4989919;28;20038;-62
2023/06/09 13:23:44;;;;;;;10.63;4.72;;;;;;;;;;4990592;28;20026;-62
2023/06/09 13:26:11;;;;;;;10.90;4.70;;;;;;;;;;4990795;28;20037;-62
2023/06/09 13:28:37;;;;;;;10.63;4.57;;;;;;;;;;4990795;28;20041;-62
2023/06/09 13:31:03;;;;;;;13.32;4.78;;;;;;;;;;4991119;28;20033;-62
2023/06/09 13:33:29;;;;;;;11.70;4.55;;;;;;;;;;4991198;28;20045;-62
2023/06/09 13:35:56;;;;;;;10.75;4.30;;;;;;;;;;4990947;28;20037;-62
2023/06/09 13:38:22;;;;;;;8.75;4.05;;;;;;;;;;4991985;28;20059;-62
2023/06/09 13:40:49;;;;;;;11.52;5.03;;;;;;;;;;4991551;28;20049;-62
2023/06/09 13:43:16;;;;;;;13.32;4.93;;;;;;;;;;4991383;28;20037;-61
2023/06/09 13:45:43;;;;;;;10.27;4.38;;;;;;;;;;4990419;28;20116;-61
2023/06/09 13:48:09;;;;;;;11.43;4.70;;;;;;;;;;4989482;28;21202;-61
2023/06/09 13:50:36;;;;;;;10.48;4.97;;;;;;;;;;4989861;28;20041;-62
2023/06/09 13:53:02;;;;;;;16.45;5.07;;;;;;;;;;4990205;28;20117;-62
2023/06/09 13:55:29;;;;;;;11.25;5.30;;;;;;;;;;4991117;28;20044;-62
2023/06/09 13:57:55;;;;;;;8.85;5.05;;;;;;;;;;4990066;28;20049;-62
2023/06/09 14:00:21;;;;;;;12.82;4.90;;;;;;;;;;4989615;28;20475;-62
2023/06/09 14:02:47;;;;;;;9.55;5.03;;;;;;;;;;4990843;28;20205;-62
2023/06/09 14:05:14;;;;;;;11.60;4.53;;;;;;;;;;4989352;28;20044;-61
2023/06/09 14:07:41;;;;;;;17.00;5.40;;;;;;;;;;4990822;28;20375;-61
2023/06/09 14:10:08;;;;;;;9.73;5.18;;;;;;;;;;4991363;28;20056;-61
2023/06/09 14:12:34;;;;;;;10.13;4.80;;;;;;;;;;4989833;28;20473;-61
2023/06/09 14:15:00;;;;;;;13.43;5.50;;;;;;;;;;4989741;28;20041;-61
2023/06/09 14:17:26;;;;;;;11.98;4.72;;;;;;;;;;4989219;28;20042;-62
2023/06/09 14:19:55;;;;;;;10.48;4.75;;;;;;;;;;4986552;28;20053;-62
2023/06/09 14:22:22;;;;;;;10.48;4.93;;;;;;;;;;4987625;28;20025;-63
2023/06/09 14:24:48;;;;;;;13.50;5.30;;;;;;;;;;4987959;28;20029;-64
2023/06/09 14:27:15;;;;;;;10.02;5.28;;;;;;;;;;4990972;28;20037;-63
2023/06/09 14:29:41;;;;;;;9.98;4.93;;;;;;;;;;4994850;28;20034;-64
2023/06/09 14:32:07;;;;;;;10.25;4.43;;;;;;;;;;4990192;28;20041;-64